Time;durP1;ratioP1;P1;durP2;ratioP2;P2;SDS_P1;SDS_P2;PMS_P1;PMS_P2;Temp;Humidity;BMP_temperature;BMP_pressure;BME280_temperature;BME280_humidity;BME280_pressure;Samples;Min_cycle;Max_cycle;Signal;HPM_P1;HPM_P2
2024/01/16 00:01:16;;;;;;;38.30;30.50;;;;;;;6.40;100.00;98237.75;5093600;28;20036;-49
2024/01/16 00:03:42;;;;;;;29.40;22.95;;;;;;;6.54;100.00;98229.06;5093484;28;20020;-49
2024/01/16 00:06:08;;;;;;;69.57;59.53;;;;;;;6.67;100.00;98230.19;5093541;28;20065;-49
2024/01/16 00:08:33;;;;;;;193.93;167.82;;;;;;;6.67;100.00;98230.19;5093504;28;20031;-49
2024/01/16 00:11:01;;;;;;;153.80;134.05;;;;;;;6.66;100.00;98226.78;5093384;28;20447;-49
2024/01/16 00:13:27;;;;;;;489.85;431.33;;;;;;;6.62;100.00;98230.75;5075252;28;20119;-49
2024/01/16 00:15:52;;;;;;;124.10;99.63;;;;;;;6.64;100.00;98226.16;5093310;28;20561;-49
2024/01/16 00:18:18;;;;;;;169.13;140.40;;;;;;;6.66;100.00;98223.34;5091679;28;20052;-49
2024/01/16 00:20:44;;;;;;;52.83;44.33;;;;;;;6.71;100.00;98218.41;5093267;28;20016;-49
2024/01/16 00:23:10;;;;;;;38.55;29.52;;;;;;;6.77;100.00;98218.44;5091880;28;20070;-49
2024/01/16 00:25:36;;;;;;;29.48;21.13;;;;;;;6.78;100.00;98211.41;5091841;28;20016;-49
2024/01/16 00:28:05;;;;;;;24.52;18.15;;;;;;;6.76;100.00;98213.41;5091881;28;20573;-47
2024/01/16 00:30:33;;;;;;;32.20;19.52;;;;;;;6.60;100.00;98210.06;5093088;28;20023;-47
2024/01/16 00:33:02;;;;;;;89.35;79.97;;;;;;;6.52;100.00;98211.97;5093053;28;20499;-47
2024/01/16 00:35:28;;;;;;;33.67;24.73;;;;;;;6.47;100.00;98203.94;5091553;28;20107;-49
2024/01/16 00:37:54;;;;;;;43.00;34.20;;;;;;;6.48;100.00;98197.69;5092901;28;20594;-49
2024/01/16 00:40:19;;;;;;;26.25;21.15;;;;;;;6.07;100.00;98196.50;5091574;28;20030;-49
2024/01/16 00:42:45;;;;;;;26.25;17.17;;;;;;;5.87;100.00;98190.22;5092831;28;20024;-49
2024/01/16 00:45:11;;;;;;;28.90;17.63;;;;;;;5.86;100.00;98199.03;5092546;28;20025;-49
2024/01/16 00:47:37;;;;;;;24.50;16.38;;;;;;;5.91;100.00;98201.88;5092765;28;20042;-49
2024/01/16 00:50:03;;;;;;;26.17;18.42;;;;;;;6.09;100.00;98198.91;5092637;28;20051;-46
2024/01/16 00:52:28;;;;;;;24.50;17.30;;;;;;;6.09;100.00;98199.72;5092652;28;20024;-47
2024/01/16 00:54:54;;;;;;;28.13;18.40;;;;;;;5.97;100.00;98203.78;5092637;28;20099;-47
2024/01/16 00:57:21;;;;;;;24.67;17.75;;;;;;;5.74;100.00;98196.88;5092488;28;20097;-47
2024/01/16 00:59:46;;;;;;;25.13;16.75;;;;;;;5.73;100.00;98205.66;5091369;28;20027;-47
2024/01/16 01:02:12;;;;;;;27.98;19.15;;;;;;;5.68;100.00;98212.44;5092465;28;20028;-47
2024/01/16 01:04:38;;;;;;;26.20;18.38;;;;;;;5.74;100.00;98217.72;5091208;28;20536;-47
2024/01/16 01:07:04;;;;;;;26.00;16.33;;;;;;;6.04;100.00;98209.91;5091078;28;20115;-47
2024/01/16 01:09:32;;;;;;;28.55;19.90;;;;;;;6.16;100.00;98205.03;5092418;28;20020;-47
2024/01/16 01:11:58;;;;;;;25.67;17.23;;;;;;;6.20;100.00;98204.47;5090982;28;20135;-48
2024/01/16 01:14:25;;;;;;;27.95;18.38;;;;;;;6.03;100.00;98210.88;5091000;28;20114;-47
2024/01/16 01:16:51;;;;;;;30.98;20.63;;;;;;;5.92;100.00;98206.13;5092223;28;20502;-47
2024/01/16 01:19:17;;;;;;;27.75;17.77;;;;;;;5.72;100.00;98206.66;5092092;28;20036;-47
2024/01/16 01:21:42;;;;;;;23.90;18.25;;;;;;;5.34;100.00;98211.16;5090868;28;20024;-47
2024/01/16 01:24:09;;;;;;;23.90;17.42;;;;;;;5.50;100.00;98205.78;5092439;28;20043;-47
2024/01/16 01:26:35;;;;;;;36.40;28.33;;;;;;;5.71;100.00;98199.03;5092059;28;20028;-46
2024/01/16 01:29:01;;;;;;;28.15;21.75;;;;;;;5.78;100.00;98199.94;5090794;28;20398;-47
2024/01/16 01:31:26;;;;;;;28.67;19.50;;;;;;;5.38;100.00;98202.81;5092293;28;20032;-47
2024/01/16 01:33:52;;;;;;;28.88;21.30;;;;;;;5.26;100.00;98222.44;5092080;28;20107;-46
2024/01/16 01:36:18;;;;;;;25.48;18.83;;;;;;;5.37;100.00;98226.41;5090638;28;20447;-47
2024/01/16 01:38:44;;;;;;;25.10;17.40;;;;;;;5.37;100.00;98232.44;5090733;28;20020;-47
2024/01/16 01:41:11;;;;;;;30.73;19.63;;;;;;;5.12;100.00;98238.84;5090719;28;20032;-47
2024/01/16 01:43:37;;;;;;;33.92;24.90;;;;;;;5.16;100.00;98235.69;5091850;28;20027;-47
2024/01/16 01:46:17;;;;;;;29.38;21.60;;;;;;;5.23;100.00;98238.41;5092181;28;20439;-47
2024/01/16 01:48:44;;;;;;;28.08;19.67;;;;;;;5.32;100.00;98245.16;5091940;28;20505;-47
2024/01/16 01:51:14;;;;;;;27.67;19.55;;;;;;;5.20;100.00;98246.56;5090494;28;20027;-47
2024/01/16 01:53:43;;;;;;;42.60;31.83;;;;;;;5.05;100.00;98243.13;5091817;28;20490;-46
2024/01/16 01:56:14;;;;;;;28.13;18.10;;;;;;;5.11;100.00;98245.84;5093895;28;20017;-46
2024/01/16 01:58:43;;;;;;;26.88;17.85;;;;;;;5.42;100.00;98244.09;5094873;28;20036;-46
2024/01/16 02:01:10;;;;;;;28.23;19.90;;;;;;;5.65;100.00;98250.00;5095972;28;20103;-46
2024/01/16 02:03:42;;;;;;;38.15;27.70;;;;;;;5.70;100.00;98252.09;5094913;28;20036;-47
2024/01/16 02:06:08;;;;;;;27.45;20.15;;;;;;;5.67;100.00;98255.84;5095910;28;20032;-46
2024/01/16 02:08:34;;;;;;;26.17;19.42;;;;;;;5.51;100.00;98259.44;5095890;28;20026;-47
2024/01/16 02:10:59;;;;;;;42.63;32.53;;;;;;;5.39;100.00;98256.47;5095744;28;20028;-47
2024/01/16 02:13:25;;;;;;;29.27;21.02;;;;;;;5.32;100.00;98252.97;5095739;28;20543;-47
2024/01/16 02:15:51;;;;;;;48.53;35.35;;;;;;;5.32;100.00;98244.34;5094301;28;20148;-47
2024/01/16 02:18:17;;;;;;;31.40;24.10;;;;;;;5.36;100.00;98254.22;5095435;28;20047;-47
2024/01/16 02:20:45;;;;;;;32.95;24.45;;;;;;;5.47;100.00;98247.75;5095604;28;20402;-47
2024/01/16 02:23:14;;;;;;;24.98;18.95;;;;;;;5.65;100.00;98244.00;5094243;28;20078;-47
2024/01/16 02:25:43;;;;;;;27.27;17.45;;;;;;;5.77;100.00;98251.19;5095570;28;20023;-47
2024/01/16 02:28:09;;;;;;;26.92;19.98;;;;;;;5.43;100.00;98241.28;5095495;28;20028;-47
2024/01/16 02:30:35;;;;;;;27.85;18.75;;;;;;;5.30;100.00;98247.13;5094142;28;20389;-46
2024/01/16 02:33:01;;;;;;;25.40;18.40;;;;;;;5.26;100.00;98240.66;5094103;28;20069;-47
2024/01/16 02:35:27;;;;;;;27.63;20.55;;;;;;;5.25;100.00;98246.03;5093948;28;20028;-47
2024/01/16 02:37:52;;;;;;;27.73;19.50;;;;;;;5.20;100.00;98241.38;5095561;28;20040;-47
2024/01/16 02:40:18;;;;;;;25.02;18.33;;;;;;;5.01;100.00;98224.47;5095211;28;20093;-46
2024/01/16 02:42:44;;;;;;;26.02;18.13;;;;;;;5.20;100.00;98226.56;5095484;28;20020;-47
2024/01/16 02:45:09;;;;;;;26.73;19.95;;;;;;;5.36;100.00;98230.00;5095094;28;20038;-47
2024/01/16 02:47:38;;;;;;;26.13;18.52;;;;;;;5.44;100.00;98224.72;5093792;28;20036;-47
2024/01/16 02:50:05;;;;;;;26.88;20.88;;;;;;;5.40;100.00;98208.63;5093767;28;20482;-47
2024/01/16 02:52:31;;;;;;;27.92;20.50;;;;;;;5.26;100.00;98212.03;5076876;28;20020;-47
2024/01/16 02:54:56;;;;;;;33.40;24.02;;;;;;;5.00;100.00;98210.66;5094985;28;20031;-47
2024/01/16 02:57:22;;;;;;;30.50;21.70;;;;;;;4.93;100.00;98211.53;5093526;28;20031;-47
2024/01/16 02:59:48;;;;;;;27.52;20.83;;;;;;;4.96;100.00;98213.78;5093571;28;20031;-47
2024/01/16 03:02:13;;;;;;;34.53;27.40;;;;;;;5.00;100.00;98209.84;5094693;28;20101;-46
2024/01/16 03:04:39;;;;;;;29.52;20.58;;;;;;;5.04;100.00;98207.72;5094787;28;20457;-47
2024/01/16 03:07:05;;;;;;;32.47;22.60;;;;;;;5.10;100.00;98214.81;5094895;28;20027;-47
2024/01/16 03:09:31;;;;;;;27.25;19.00;;;;;;;4.95;100.00;98209.56;5093399;28;20490;-47
2024/01/16 03:12:00;;;;;;;25.67;17.77;;;;;;;4.83;100.00;98205.75;5094659;28;20057;-47
2024/01/16 03:14:25;;;;;;;28.88;22.13;;;;;;;4.68;100.00;98213.53;5094560;28;20020;-47
2024/01/16 03:16:51;;;;;;;27.70;19.23;;;;;;;4.72;100.00;98213.00;5093118;28;20509;-47
2024/01/16 03:19:17;;;;;;;41.38;30.60;;;;;;;4.75;100.00;98201.47;5092993;28;20048;-47
2024/01/16 03:21:42;;;;;;;26.42;18.33;;;;;;;4.87;100.00;98199.22;5094432;28;20386;-47
2024/01/16 03:24:10;;;;;;;31.20;22.92;;;;;;;4.59;100.00;98199.78;5094431;28;20073;-47
2024/01/16 03:26:39;;;;;;;27.88;18.17;;;;;;;4.46;100.00;98207.34;5094322;28;20486;-47
2024/01/16 03:29:06;;;;;;;31.30;22.85;;;;;;;4.13;100.00;98208.34;5094300;28;20095;-46
2024/01/16 03:31:31;;;;;;;26.48;20.75;;;;;;;4.33;100.00;98205.31;5093197;28;20112;-47
2024/01/16 03:33:57;;;;;;;31.60;21.67;;;;;;;4.60;100.00;98201.38;5094191;28;20063;-47
2024/01/16 03:36:23;;;;;;;28.77;20.20;;;;;;;4.84;100.00;98204.78;5094114;28;20024;-47
2024/01/16 03:38:49;;;;;;;28.75;20.58;;;;;;;5.05;100.00;98198.91;5094142;28;20032;-47
2024/01/16 03:41:14;;;;;;;26.98;21.08;;;;;;;5.24;100.00;98201.00;5092734;28;20032;-46
2024/01/16 03:43:40;;;;;;;30.45;20.65;;;;;;;5.46;100.00;98181.09;5094027;28;20028;-47
2024/01/16 03:46:06;;;;;;;33.55;21.42;;;;;;;5.49;100.00;98187.72;5093996;28;20027;-47
2024/01/16 03:48:32;;;;;;;29.30;19.08;;;;;;;5.46;100.00;98188.09;5093946;28;20024;-47
2024/01/16 03:50:58;;;;;;;25.52;18.10;;;;;;;5.33;100.00;98168.72;5093925;28;20016;-47
2024/01/16 03:53:24;;;;;;;33.63;25.48;;;;;;;5.27;100.00;98172.03;5093762;28;20110;-46
2024/01/16 03:55:50;;;;;;;27.00;20.90;;;;;;;5.17;100.00;98171.47;5093667;28;20509;-47
2024/01/16 03:58:16;;;;;;;27.92;20.38;;;;;;;5.02;100.00;98170.66;5092416;28;20115;-47
2024/01/16 04:00:42;;;;;;;28.80;19.30;;;;;;;5.05;100.00;98167.69;5092346;28;20024;-47
2024/01/16 04:03:08;;;;;;;27.17;19.20;;;;;;;5.08;100.00;98169.97;5093678;28;20024;-46
2024/01/16 04:05:34;;;;;;;29.02;20.60;;;;;;;5.10;100.00;98158.38;5093545;28;20513;-47
2024/01/16 04:08:00;;;;;;;26.83;20.35;;;;;;;5.09;100.00;98150.75;5092228;28;20146;-47
2024/01/16 04:10:26;;;;;;;27.50;19.75;;;;;;;5.10;100.00;98149.78;5093405;28;20596;-47
2024/01/16 04:12:52;;;;;;;29.50;19.83;;;;;;;5.16;100.00;98151.66;5093502;28;20034;-47
2024/01/16 04:15:18;;;;;;;27.20;19.10;;;;;;;5.16;100.00;98147.25;5093372;28;20090;-46
2024/01/16 04:17:44;;;;;;;30.58;21.45;;;;;;;5.12;100.00;98134.81;5092747;28;20105;-47
2024/01/16 04:20:10;;;;;;;27.13;20.17;;;;;;;4.93;100.00;98138.72;5091852;28;20020;-47
2024/01/16 04:22:36;;;;;;;30.20;21.95;;;;;;;4.91;100.00;98148.47;5093467;28;20064;-47
2024/01/16 04:25:04;;;;;;;29.85;21.85;;;;;;;4.80;100.00;98139.34;5093232;28;20043;-47
2024/01/16 04:27:31;;;;;;;32.63;22.40;;;;;;;4.53;100.00;98133.72;5093085;28;20103;-47
2024/01/16 04:29:57;;;;;;;29.33;21.98;;;;;;;4.63;100.00;98132.66;5093150;28;20038;-47
2024/01/16 04:32:23;;;;;;;33.00;23.88;;;;;;;4.84;100.00;98137.19;5091667;28;20542;-47
2024/01/16 04:34:48;;;;;;;29.67;21.55;;;;;;;4.71;100.00;98132.59;5093355;28;20386;-47
2024/01/16 04:37:14;;;;;;;33.28;22.50;;;;;;;4.66;100.00;98129.72;5092863;28;20020;-47
2024/01/16 04:39:40;;;;;;;32.67;21.35;;;;;;;4.71;100.00;98128.22;5092929;28;20494;-47
2024/01/16 04:42:05;;;;;;;30.45;20.67;;;;;;;4.68;100.00;98132.94;5092900;28;20036;-47
2024/01/16 04:44:31;;;;;;;30.85;23.55;;;;;;;4.55;100.00;98128.34;5091467;28;20461;-47
2024/01/16 04:46:57;;;;;;;30.33;20.65;;;;;;;4.52;100.00;98113.91;5091515;28;20122;-47
2024/01/16 04:49:23;;;;;;;32.10;22.63;;;;;;;4.40;100.00;98110.91;5092808;28;20020;-47
2024/01/16 04:51:49;;;;;;;31.98;20.38;;;;;;;4.13;100.00;98122.66;5092621;28;20041;-47
2024/01/16 04:54:15;;;;;;;32.03;23.35;;;;;;;4.15;100.00;98114.69;5091499;28;20430;-47
2024/01/16 04:56:41;;;;;;;33.45;22.70;;;;;;;4.26;100.00;98119.47;5091231;28;20027;-47
2024/01/16 04:59:06;;;;;;;30.88;21.63;;;;;;;4.53;100.00;98123.31;5091283;28;20024;-47
2024/01/16 05:01:32;;;;;;;591.45;414.83;;;;;;;4.76;100.00;98119.88;5091318;28;20028;-47
2024/01/16 05:03:58;;;;;;;106.57;72.53;;;;;;;4.92;100.00;98116.31;5091165;28;20094;-47
2024/01/16 05:06:24;;;;;;;46.67;32.13;;;;;;;4.79;100.00;98115.13;5092399;28;20032;-47
2024/01/16 05:08:53;;;;;;;41.00;30.55;;;;;;;4.68;100.00;98118.16;5091264;28;20032;-47
2024/01/16 05:11:18;;;;;;;35.75;24.02;;;;;;;4.83;100.00;98115.59;5091052;28;20488;-47
2024/01/16 05:13:44;;;;;;;33.92;23.63;;;;;;;4.96;100.00;98113.16;5074225;28;20123;-47
2024/01/16 05:16:10;;;;;;;35.30;24.85;;;;;;;4.86;100.00;98110.03;5090900;28;20020;-46
2024/01/16 05:18:35;;;;;;;32.03;22.52;;;;;;;4.64;100.00;98116.09;5092067;28;20121;-46
2024/01/16 05:21:02;;;;;;;35.42;23.52;;;;;;;4.44;100.00;98124.38;5092240;28;20024;-47
2024/01/16 05:23:28;;;;;;;33.75;22.15;;;;;;;4.65;100.00;98113.31;5091009;28;20440;-47
2024/01/16 05:25:54;;;;;;;41.22;29.90;;;;;;;4.78;100.00;98123.09;5092157;28;20032;-47
2024/01/16 05:28:19;;;;;;;29.88;23.08;;;;;;;4.89;100.00;98114.06;5092097;28;20027;-47
2024/01/16 05:30:45;;;;;;;33.28;24.48;;;;;;;4.99;100.00;98112.03;5089911;28;20024;-47
2024/01/16 05:33:11;;;;;;;32.05;22.40;;;;;;;5.10;100.00;98111.56;5092305;28;20024;-47
2024/01/16 05:35:36;;;;;;;37.33;26.42;;;;;;;5.27;100.00;98113.97;5091941;28;20016;-47
2024/01/16 05:38:06;;;;;;;37.10;25.80;;;;;;;5.24;100.00;98120.34;5092027;28;20038;-47
2024/01/16 05:40:32;;;;;;;118.10;99.57;;;;;;;4.99;100.00;98114.63;5091957;28;20048;-46
2024/01/16 05:42:58;;;;;;;43.13;33.33;;;;;;;4.83;100.00;98126.00;5090859;28;20067;-47
2024/01/16 05:45:23;;;;;;;54.00;40.42;;;;;;;4.75;100.00;98129.47;5090533;28;20055;-47
2024/01/16 05:47:49;;;;;;;46.58;29.63;;;;;;;4.70;100.00;98125.78;5091963;28;20085;-47
2024/01/16 05:50:18;;;;;;;35.42;25.42;;;;;;;4.70;100.00;98130.97;5091820;28;20091;-47
2024/01/16 05:52:43;;;;;;;35.47;24.88;;;;;;;4.83;100.00;98125.16;5091788;28;20024;-47
2024/01/16 05:55:10;;;;;;;49.60;38.95;;;;;;;4.80;100.00;98131.53;5090502;28;20375;-46
2024/01/16 05:57:37;;;;;;;37.55;26.90;;;;;;;4.86;100.00;98127.44;5090446;28;20028;-47
2024/01/16 06:00:05;;;;;;;53.55;34.08;;;;;;;4.88;100.00;98121.06;5090445;28;20024;-46
2024/01/16 06:02:31;;;;;;;40.08;27.13;;;;;;;4.69;100.00;98121.56;5091738;28;20028;-47
2024/01/16 06:04:56;;;;;;;41.22;30.50;;;;;;;4.62;100.00;98125.84;5091716;28;20016;-47
2024/01/16 06:07:22;;;;;;;36.75;28.27;;;;;;;4.61;100.00;98122.47;5091651;28;20056;-47
2024/01/16 06:09:48;;;;;;;35.65;24.95;;;;;;;4.64;100.00;98119.50;5091695;28;20448;-47
2024/01/16 06:12:14;;;;;;;35.88;25.15;;;;;;;4.60;100.00;98116.44;5090317;28;20032;-47
2024/01/16 06:14:39;;;;;;;53.10;28.88;;;;;;;4.59;100.00;98116.63;5091669;28;20505;-47
2024/01/16 06:17:06;;;;;;;36.63;22.08;;;;;;;4.37;100.00;98110.47;5091547;28;20069;-47
2024/01/16 06:19:33;;;;;;;38.50;23.98;;;;;;;4.25;100.00;98111.88;5091334;28;20128;-46
2024/01/16 06:22:00;;;;;;;38.78;23.90;;;;;;;4.34;100.00;98109.00;5091640;28;20020;-47
2024/01/16 06:24:26;;;;;;;35.78;23.80;;;;;;;4.39;100.00;98100.72;5073485;28;20379;-47
2024/01/16 06:26:51;;;;;;;37.83;22.92;;;;;;;4.52;100.00;98095.72;5090248;28;20028;-47
2024/01/16 06:29:17;;;;;;;34.97;21.95;;;;;;;4.56;100.00;98085.78;5091571;28;20023;-47
2024/01/16 06:31:43;;;;;;;39.35;24.25;;;;;;;4.47;100.00;98082.47;5091515;28;20047;-47
2024/01/16 06:34:09;;;;;;;33.17;22.88;;;;;;;4.40;100.00;98077.13;5090247;28;20047;-47
2024/01/16 06:36:35;;;;;;;36.20;23.77;;;;;;;4.02;100.00;98078.09;5090087;28;20131;-47
2024/01/16 06:39:01;;;;;;;33.17;23.30;;;;;;;3.89;100.00;98073.50;5091514;28;20529;-47
2024/01/16 06:41:26;;;;;;;35.75;24.08;;;;;;;4.10;100.00;98084.03;5090958;28;20020;-46
2024/01/16 06:43:52;;;;;;;35.83;24.52;;;;;;;4.16;100.00;98087.72;5095254;28;20020;-47
2024/01/16 06:46:18;;;;;;;36.65;23.63;;;;;;;4.19;100.00;98080.41;5095062;28;20028;-47
2024/01/16 06:48:43;;;;;;;35.15;22.33;;;;;;;4.26;100.00;98095.28;5093852;28;20064;-47
2024/01/16 06:51:10;;;;;;;61.38;26.60;;;;;;;4.11;100.00;98097.84;5093767;28;20028;-47
2024/01/16 06:53:36;;;;;;;37.80;22.75;;;;;;;4.08;100.00;98098.19;5095020;28;20026;-47
2024/01/16 06:56:03;;;;;;;37.58;25.98;;;;;;;4.16;100.00;98098.91;5093582;28;20103;-47
2024/01/16 06:58:28;;;;;;;40.80;25.63;;;;;;;4.29;100.00;98098.34;5094936;28;20069;-47
2024/01/16 07:00:55;;;;;;;35.17;22.00;;;;;;;4.42;100.00;98107.34;5094858;28;20019;-47
2024/01/16 07:03:20;;;;;;;33.85;21.88;;;;;;;4.46;100.00;98103.41;5093513;28;20028;-47
2024/01/16 07:05:46;;;;;;;32.63;21.52;;;;;;;4.55;100.00;98097.97;5093456;28;20028;-47
2024/01/16 07:08:12;;;;;;;34.05;22.10;;;;;;;4.58;100.00;98105.41;5094737;28;20046;-47
2024/01/16 07:10:38;;;;;;;36.75;21.55;;;;;;;4.04;100.00;98107.31;5093386;28;20021;-49
2024/01/16 07:13:03;;;;;;;38.42;20.30;;;;;;;3.46;100.00;98110.22;5094687;28;20063;-49
2024/01/16 07:15:32;;;;;;;36.92;22.75;;;;;;;3.48;100.00;98110.88;5093388;28;20023;-49
2024/01/16 07:17:58;;;;;;;35.35;22.80;;;;;;;3.65;100.00;98110.78;5094128;28;20048;-50
2024/01/16 07:20:24;;;;;;;33.20;22.52;;;;;;;3.78;100.00;98111.84;5093217;28;20052;-49
2024/01/16 07:22:49;;;;;;;36.50;21.55;;;;;;;3.96;100.00;98103.78;5094450;28;20028;-49
2024/01/16 07:25:15;;;;;;;36.97;26.58;;;;;;;4.13;100.00;98101.88;5094464;28;20031;-49
2024/01/16 07:27:42;;;;;;;31.65;20.42;;;;;;;4.24;100.00;98099.84;5094626;28;20028;-47
2024/01/16 07:30:08;;;;;;;35.08;20.75;;;;;;;4.20;100.00;98109.78;5094549;28;20066;-47
2024/01/16 07:32:37;;;;;;;32.88;21.92;;;;;;;4.14;100.00;98106.06;5094284;28;20028;-46
2024/01/16 07:35:03;;;;;;;32.40;20.00;;;;;;;4.20;100.00;98110.59;5092921;28;20445;-46
2024/01/16 07:37:29;;;;;;;36.78;20.05;;;;;;;4.27;100.00;98115.09;5094100;28;20020;-46
2024/01/16 07:39:54;;;;;;;34.20;19.42;;;;;;;4.15;100.00;98112.09;5092862;28;20020;-47
2024/01/16 07:42:20;;;;;;;35.95;22.23;;;;;;;4.05;100.00;98109.72;5092762;28;20035;-46
2024/01/16 07:44:46;;;;;;;37.05;20.90;;;;;;;4.09;100.00;98100.63;5094083;28;20137;-47
2024/01/16 07:47:12;;;;;;;35.97;21.48;;;;;;;4.13;100.00;98098.47;5092663;28;20032;-47
2024/01/16 07:49:37;;;;;;;35.03;20.17;;;;;;;4.24;100.00;98092.06;5093941;28;20023;-49
2024/01/16 07:52:03;;;;;;;39.05;19.80;;;;;;;4.40;100.00;98086.72;5093865;28;20032;-49
2024/01/16 07:54:30;;;;;;;44.55;20.92;;;;;;;4.50;100.00;98082.09;5092952;28;20019;-49
2024/01/16 07:56:56;;;;;;;41.08;21.15;;;;;;;4.52;100.00;98089.72;5093678;28;20104;-49
2024/01/16 07:59:22;;;;;;;60.72;23.65;;;;;;;4.46;100.00;98082.63;5093715;28;20433;-50
2024/01/16 08:01:48;;;;;;;54.17;21.83;;;;;;;4.32;100.00;98079.00;5092689;28;20555;-49
2024/01/16 08:04:14;;;;;;;42.45;22.10;;;;;;;4.16;100.00;98080.75;5093658;28;20035;-47
2024/01/16 08:06:39;;;;;;;54.33;27.23;;;;;;;4.25;100.00;98068.53;5093808;28;20035;-47
2024/01/16 08:09:06;;;;;;;44.30;21.00;;;;;;;4.43;100.00;98075.16;5093645;28;20016;-47
2024/01/16 08:11:31;;;;;;;42.35;21.67;;;;;;;4.52;100.00;98080.13;5093489;28;20024;-47
2024/01/16 08:13:57;;;;;;;43.63;23.20;;;;;;;4.55;100.00;98074.59;5093375;28;20024;-47
2024/01/16 08:16:23;;;;;;;40.05;22.60;;;;;;;4.58;100.00;98070.81;5093278;28;20016;-47
2024/01/16 08:18:49;;;;;;;50.70;26.88;;;;;;;4.20;100.00;98082.03;5093138;28;20119;-47
2024/01/16 08:21:15;;;;;;;41.28;21.67;;;;;;;4.01;100.00;98087.69;5093302;28;20024;-47
2024/01/16 08:23:41;;;;;;;41.17;22.38;;;;;;;4.13;100.00;98093.28;5093306;28;20030;-47
2024/01/16 08:26:06;;;;;;;41.17;25.30;;;;;;;4.35;100.00;98091.66;5091892;28;20107;-49
2024/01/16 08:28:32;;;;;;;42.30;24.95;;;;;;;4.65;100.00;98096.91;5093199;28;20060;-50
2024/01/16 08:30:58;;;;;;;44.08;26.77;;;;;;;4.89;100.00;98093.25;5091867;28;20016;-49
2024/01/16 08:33:24;;;;;;;47.60;27.20;;;;;;;5.00;100.00;98090.22;5093085;28;20024;-50
2024/01/16 08:35:50;;;;;;;63.92;30.80;;;;;;;5.01;100.00;98102.25;5093018;28;20396;-49
2024/01/16 08:38:16;;;;;;;44.17;25.60;;;;;;;4.90;100.00;98100.88;5093036;28;20051;-47
2024/01/16 08:40:41;;;;;;;47.78;30.08;;;;;;;4.92;100.00;98096.31;5092907;28;20486;-47
2024/01/16 08:43:07;;;;;;;50.28;24.95;;;;;;;4.93;100.00;98100.53;5092954;28;20154;-47
2024/01/16 08:45:33;;;;;;;51.60;28.20;;;;;;;4.61;100.00;98096.47;5092765;28;20035;-47
2024/01/16 08:47:59;;;;;;;54.97;29.52;;;;;;;4.47;100.00;98108.44;5092822;28;20113;-47
2024/01/16 08:50:25;;;;;;;48.97;28.33;;;;;;;4.66;100.00;98111.53;5092802;28;20027;-47
2024/01/16 08:52:51;;;;;;;49.85;27.85;;;;;;;4.83;100.00;98126.00;5091446;28;20024;-47
2024/01/16 08:55:17;;;;;;;44.53;25.92;;;;;;;4.81;100.00;98127.97;5092706;28;20031;-47
2024/01/16 08:57:42;;;;;;;45.33;28.60;;;;;;;4.92;100.00;98129.31;5092550;28;20039;-47
2024/01/16 09:00:08;;;;;;;47.25;24.52;;;;;;;5.04;100.00;98130.50;5092596;28;20019;-47
2024/01/16 09:02:37;;;;;;;43.05;24.27;;;;;;;5.14;100.00;98138.84;5092573;28;20032;-47
2024/01/16 09:05:04;;;;;;;46.42;29.13;;;;;;;5.32;100.00;98132.47;5092408;28;20400;-47
2024/01/16 09:07:30;;;;;;;81.70;30.17;;;;;;;5.31;100.00;98134.28;5092731;28;20028;-47
2024/01/16 09:09:56;;;;;;;44.20;26.05;;;;;;;5.14;100.00;98122.44;5092470;28;20012;-47
2024/01/16 09:12:22;;;;;;;45.08;27.77;;;;;;;4.92;100.00;98124.91;5092412;28;20172;-47
2024/01/16 09:14:48;;;;;;;53.08;28.65;;;;;;;4.93;100.00;98116.16;5092376;28;20046;-47
2024/01/16 09:17:13;;;;;;;46.80;27.45;;;;;;;4.91;100.00;98112.09;5092252;28;20030;-47
2024/01/16 09:19:39;;;;;;;46.25;29.35;;;;;;;4.94;100.00;98124.75;5090759;28;20043;-47
2024/01/16 09:22:05;;;;;;;50.70;28.67;;;;;;;4.85;100.00;98116.22;5092295;28;20056;-47
2024/01/16 09:24:31;;;;;;;48.25;25.63;;;;;;;4.78;100.00;98123.09;5092223;28;20036;-47
2024/01/16 09:26:58;;;;;;;51.97;26.35;;;;;;;4.90;100.00;98120.88;5092204;28;20024;-47
2024/01/16 09:29:24;;;;;;;47.58;27.63;;;;;;;4.96;100.00;98130.56;5090845;28;20552;-47
2024/01/16 09:31:50;;;;;;;50.33;32.45;;;;;;;4.97;100.00;98142.56;5092031;28;20024;-47
2024/01/16 09:34:17;;;;;;;45.28;28.65;;;;;;;4.71;100.00;98137.78;5092074;28;20032;-48
2024/01/16 09:36:43;;;;;;;49.25;29.83;;;;;;;4.83;100.00;98140.75;5090660;28;20031;-47
2024/01/16 09:39:10;;;;;;;47.00;27.38;;;;;;;5.12;100.00;98130.41;5092012;28;20028;-47
2024/01/16 09:41:37;;;;;;;42.70;25.60;;;;;;;5.34;100.00;98133.91;5091954;28;20024;-47
2024/01/16 09:44:05;;;;;;;50.40;28.05;;;;;;;5.47;100.00;98135.06;5090555;28;20024;-47
2024/01/16 09:46:31;;;;;;;45.75;25.52;;;;;;;5.51;100.00;98131.91;5090578;28;20032;-47
2024/01/16 09:48:59;;;;;;;43.05;27.05;;;;;;;5.62;100.00;98135.06;5090583;28;20077;-47
2024/01/16 09:51:25;;;;;;;49.75;29.10;;;;;;;5.67;100.00;98128.28;5091822;28;20024;-49
2024/01/16 09:53:52;;;;;;;47.15;27.50;;;;;;;5.56;100.00;98141.78;5090516;28;20039;-49
2024/01/16 09:56:24;;;;;;;49.25;27.92;;;;;;;5.52;100.00;98150.94;5091713;28;20099;-49
2024/01/16 09:58:58;;;;;;;92.63;71.82;;;;;;;5.47;100.00;98148.06;5091866;28;20097;-49
2024/01/16 10:01:28;;;;;;;70.10;48.85;;;;;;;5.47;100.00;98135.06;5090479;28;20020;-49
2024/01/16 10:03:53;;;;;;;76.93;53.78;;;;;;;5.48;100.00;98152.28;5091786;28;20515;-47
2024/01/16 10:06:20;;;;;;;55.28;30.35;;;;;;;5.56;100.00;98154.81;5091577;28;20028;-47
2024/01/16 10:08:47;;;;;;;59.65;32.28;;;;;;;5.60;100.00;98149.03;5090714;28;20131;-47
2024/01/16 10:11:12;;;;;;;58.50;31.60;;;;;;;5.50;100.00;98137.31;5091754;28;20028;-47
2024/01/16 10:13:38;;;;;;;53.10;30.05;;;;;;;5.37;100.00;98130.13;5091594;28;20024;-47
2024/01/16 10:16:04;;;;;;;76.72;48.10;;;;;;;5.36;100.00;98125.91;5090478;28;20036;-47
2024/01/16 10:18:30;;;;;;;56.08;28.90;;;;;;;5.45;100.00;98126.63;5095499;28;20510;-47
2024/01/16 10:20:57;;;;;;;53.17;28.52;;;;;;;5.53;100.00;98118.72;5095670;28;20477;-47
2024/01/16 10:23:24;;;;;;;51.80;27.38;;;;;;;5.40;100.00;98106.34;5095675;28;20036;-47
2024/01/16 10:26:09;;;;;;;54.17;28.17;;;;;;;5.12;100.00;98096.59;5095644;28;20020;-49
2024/01/16 10:28:36;;;;;;;59.15;32.60;;;;;;;4.94;100.00;98102.13;5095434;28;20035;-49
2024/01/16 10:31:06;;;;;;;53.35;29.90;;;;;;;4.88;100.00;98095.06;5095401;28;20039;-50
2024/01/16 10:33:32;;;;;;;58.40;32.50;;;;;;;4.82;100.00;98093.16;5095463;28;20036;-49
2024/01/16 10:36:12;;;;;;;56.47;31.63;;;;;;;4.96;100.00;98101.97;5093969;28;20032;-49
2024/01/16 10:38:39;;;;;;;57.92;29.75;;;;;;;5.23;100.00;98104.94;5095382;28;20107;-50
2024/01/16 10:41:26;;;;;;;301.35;219.95;;;;;;;5.52;100.00;98115.31;5095290;28;20020;-50
2024/01/16 10:44:06;;;;;;;190.13;130.30;;;;;;;5.86;100.00;98124.31;5094926;28;20123;-47
2024/01/16 10:46:33;;;;;;;148.35;110.32;;;;;;;6.12;100.00;98121.22;5095161;28;20086;-47
2024/01/16 10:49:05;;;;;;;73.07;40.17;;;;;;;6.14;100.00;98119.22;5095133;28;20030;-47
2024/01/16 10:51:32;;;;;;;70.55;37.90;;;;;;;5.83;100.00;98103.84;5095051;28;20069;-47
2024/01/16 10:54:09;;;;;;;59.38;32.42;;;;;;;5.84;100.00;98102.06;5095061;28;20024;-47
2024/01/16 10:56:35;;;;;;;54.55;30.52;;;;;;;6.04;100.00;98087.47;5095129;28;20067;-47
2024/01/16 10:59:15;;;;;;;57.35;32.17;;;;;;;6.24;100.00;98079.00;5095012;28;20095;-47
2024/01/16 11:01:45;;;;;;;61.70;30.58;;;;;;;6.36;100.00;98087.97;5094965;28;20027;-47
2024/01/16 11:04:12;;;;;;;63.75;31.63;;;;;;;6.47;100.00;98089.25;5094922;28;20393;-49
2024/01/16 11:06:41;;;;;;;52.97;29.90;;;;;;;6.48;100.00;98086.44;5094822;28;20035;-50
2024/01/16 11:09:08;;;;;;;51.88;29.58;;;;;;;6.62;100.00;98079.53;5094703;28;20035;-49
2024/01/16 11:11:35;;;;;;;51.78;28.73;;;;;;;6.82;100.00;98076.25;5094686;28;20085;-49
2024/01/16 11:14:03;;;;;;;58.67;30.98;;;;;;;6.93;100.00;98071.28;5093355;28;20070;-49